createdAt,value
2023-04-07T00:00:09.386Z,4.53
2023-04-07T00:02:38.634Z,4.53
2023-04-07T00:05:07.003Z,5.55
2023-04-07T00:07:39.607Z,4.75
2023-04-07T00:10:16.590Z,5.45
2023-04-07T00:12:44.375Z,5.13
2023-04-07T00:15:12.576Z,5.82
2023-04-07T00:17:41.916Z,4.63
2023-04-07T00:20:10.504Z,7.45
2023-04-07T00:22:38.410Z,5.38
2023-04-07T00:25:07.266Z,6.07
2023-04-07T00:27:35.049Z,5.70
2023-04-07T00:30:02.850Z,6.18
2023-04-07T00:32:31.130Z,7.20
2023-04-07T00:35:02.356Z,5.90
2023-04-07T00:37:30.549Z,5.75
2023-04-07T00:39:59.333Z,5.68
2023-04-07T00:42:27.301Z,7.35
2023-04-07T00:44:55.315Z,4.63
2023-04-07T00:47:23.247Z,4.47
2023-04-07T00:49:51.282Z,4.53
2023-04-07T00:52:27.261Z,7.95
2023-04-07T00:54:55.265Z,4.47
2023-04-07T00:57:23.644Z,5.13
2023-04-07T00:59:52.365Z,4.60
2023-04-07T01:02:24.314Z,6.65
2023-04-07T01:04:59.386Z,5.13
2023-04-07T01:07:33.975Z,6.03
2023-04-07T01:10:05.705Z,5.25
2023-04-07T01:12:41.081Z,6.25
2023-04-07T01:15:11.942Z,5.40
2023-04-07T01:17:44.983Z,4.93
2023-04-07T01:20:17.363Z,4.50
2023-04-07T01:22:52.063Z,5.72
2023-04-07T01:25:29.090Z,5.03
2023-04-07T01:28:12.568Z,5.22
2023-04-07T01:30:42.833Z,5.95
2023-04-07T01:33:12.737Z,5.65
2023-04-07T01:35:42.589Z,7.68
2023-04-07T01:38:12.334Z,4.88
2023-04-07T01:40:41.548Z,4.95
2023-04-07T01:43:10.428Z,5.75
2023-04-07T01:45:39.484Z,5.70
2023-04-07T01:48:10.340Z,5.57
2023-04-07T01:50:39.470Z,6.60
2023-04-07T01:53:08.687Z,5.53
2023-04-07T01:55:36.956Z,6.43
2023-04-07T01:58:08.175Z,5.50
2023-04-07T02:00:36.336Z,5.10
2023-04-07T02:03:12.614Z,6.18
2023-04-07T02:05:41.443Z,5.93
2023-04-07T02:08:11.562Z,6.03
2023-04-07T02:10:40.285Z,6.00
2023-04-07T02:13:11.445Z,6.72
2023-04-07T02:15:40.245Z,6.28
2023-04-07T02:18:13.015Z,6.15
2023-04-07T02:20:42.017Z,8.32
2023-04-07T02:23:10.178Z,8.57
2023-04-07T02:25:38.989Z,7.43
2023-04-07T02:28:08.066Z,6.55
2023-04-07T02:30:36.781Z,5.80
2023-04-07T02:33:04.761Z,7.82
2023-04-07T02:35:33.978Z,6.47
2023-04-07T02:38:02.689Z,7.00
2023-04-07T02:40:31.001Z,6.70
2023-04-07T02:43:05.502Z,8.38
2023-04-07T02:45:33.974Z,6.88
2023-04-07T02:48:01.911Z,7.60
2023-04-07T02:50:29.720Z,8.95
2023-04-07T02:52:59.012Z,8.60
2023-04-07T02:55:26.943Z,8.27
2023-04-07T02:57:54.895Z,9.15
2023-04-07T03:00:22.818Z,9.70
2023-04-07T03:02:51.088Z,9.73
2023-04-07T03:05:19.230Z,10.90
2023-04-07T03:07:47.236Z,8.52
2023-04-07T03:10:16.557Z,11.32
2023-04-07T03:12:44.597Z,11.07
2023-04-07T03:15:12.696Z,9.63
2023-04-07T03:17:40.480Z,10.52
2023-04-07T03:20:09.607Z,10.95
2023-04-07T03:22:37.598Z,10.70
2023-04-07T03:25:06.257Z,11.43
2023-04-07T03:27:35.459Z,12.75
2023-04-07T03:30:03.568Z,11.05
2023-04-07T03:32:31.482Z,13.02
2023-04-07T03:34:59.348Z,12.32
2023-04-07T03:37:27.269Z,12.70
2023-04-07T03:39:55.455Z,13.00
2023-04-07T03:42:23.394Z,10.55
2023-04-07T03:44:52.784Z,11.32
2023-04-07T03:47:20.754Z,12.30
2023-04-07T03:49:48.550Z,13.70
2023-04-07T03:52:16.847Z,13.70
2023-04-07T03:54:44.779Z,14.98
2023-04-07T03:57:12.689Z,13.80
2023-04-07T03:59:40.544Z,11.50
2023-04-07T04:02:10.288Z,15.20
2023-04-07T04:04:38.242Z,13.95
2023-04-07T04:07:06.410Z,12.15
2023-04-07T04:09:34.175Z,13.98
2023-04-07T04:12:02.422Z,12.88
2023-04-07T04:14:30.416Z,15.75
2023-04-07T04:16:58.280Z,14.43
2023-04-07T04:19:27.499Z,15.27
2023-04-07T04:21:55.538Z,16.85
2023-04-07T04:24:23.377Z,15.45
2023-04-07T04:26:51.180Z,17.20
2023-04-07T04:29:19.074Z,15.35
2023-04-07T04:31:47.196Z,16.90
2023-04-07T04:34:15.054Z,13.18
2023-04-07T04:36:44.653Z,15.60
2023-04-07T04:39:12.506Z,14.70
2023-04-07T04:41:40.427Z,14.38
2023-04-07T04:44:08.477Z,13.50
2023-04-07T04:46:36.457Z,17.17
2023-04-07T04:49:04.619Z,16.05
2023-04-07T04:51:32.629Z,14.70
2023-04-07T04:54:03.746Z,14.20
2023-04-07T04:56:32.077Z,13.02
2023-04-07T04:59:00.253Z,12.25
2023-04-07T05:01:28.027Z,11.52
2023-04-07T05:03:56.300Z,10.90
2023-04-07T05:06:24.516Z,11.20
2023-04-07T05:08:52.293Z,10.30
2023-04-07T05:11:22.150Z,10.40
2023-04-07T05:13:50.247Z,10.93
2023-04-07T05:16:18.438Z,9.85
2023-04-07T05:18:46.495Z,9.35
2023-04-07T05:21:14.306Z,10.68
2023-04-07T05:23:42.582Z,8.70
2023-04-07T05:26:10.478Z,8.32
2023-04-07T05:28:39.814Z,7.53
2023-04-07T05:31:08.066Z,7.15
2023-04-07T05:33:36.078Z,7.95
2023-04-07T05:36:04.017Z,7.80
2023-04-07T05:38:32.274Z,7.03
2023-04-07T05:41:00.114Z,7.40
2023-04-07T05:43:28.213Z,5.25
2023-04-07T05:45:57.729Z,5.40
2023-04-07T05:48:25.792Z,6.30
2023-04-07T05:50:53.856Z,5.22
2023-04-07T05:53:21.666Z,5.55
2023-04-07T05:55:49.444Z,6.53
2023-04-07T05:58:17.721Z,5.60
2023-04-07T06:00:45.628Z,4.90
2023-04-07T06:03:14.904Z,5.28
2023-04-07T06:05:43.852Z,4.60
2023-04-07T06:08:12.805Z,5.32
2023-04-07T06:10:41.764Z,4.15
2023-04-07T06:13:09.806Z,4.40
2023-04-07T06:15:37.665Z,4.53
2023-04-07T06:18:05.496Z,6.18
2023-04-07T06:20:35.906Z,4.18
2023-04-07T06:23:03.734Z,4.65
2023-04-07T06:25:31.633Z,4.32
2023-04-07T06:27:59.589Z,3.65
2023-04-07T06:30:27.515Z,3.45
2023-04-07T06:32:55.676Z,4.28
2023-04-07T06:35:23.639Z,4.88
2023-04-07T06:37:52.910Z,4.47
2023-04-07T06:40:20.867Z,4.55
2023-04-07T06:42:48.789Z,4.13
2023-04-07T06:45:16.780Z,4.82
2023-04-07T06:47:44.660Z,5.82
2023-04-07T06:50:12.702Z,3.58
2023-04-07T06:52:40.686Z,2.95
2023-04-07T06:55:11.226Z,3.70
2023-04-07T06:57:39.302Z,3.67
2023-04-07T07:00:09.144Z,2.95
2023-04-07T07:02:37.223Z,2.88
2023-04-07T07:05:05.978Z,2.83
2023-04-07T07:07:33.930Z,3.33
2023-04-07T07:10:02.127Z,3.40
2023-04-07T07:12:32.426Z,2.72
2023-04-07T07:15:00.187Z,3.55
2023-04-07T07:17:29.198Z,3.08
2023-04-07T07:19:57.076Z,2.97
2023-04-07T07:22:25.009Z,3.00
2023-04-07T07:24:52.836Z,2.50
2023-04-07T07:27:20.999Z,2.50
2023-04-07T07:29:50.244Z,2.88
2023-04-07T07:32:18.144Z,2.88
2023-04-07T07:34:46.305Z,2.58
2023-04-07T07:37:14.123Z,2.63
2023-04-07T07:39:42.016Z,3.05
2023-04-07T07:42:09.922Z,2.75
2023-04-07T07:44:37.733Z,2.60
2023-04-07T07:47:06.961Z,3.22
2023-04-07T07:49:35.860Z,2.50
2023-04-07T07:52:03.889Z,3.60
2023-04-07T07:54:31.731Z,4.25
2023-04-07T07:56:59.808Z,2.75
2023-04-07T07:59:28.445Z,3.50
2023-04-07T08:01:56.337Z,2.92
2023-04-07T08:04:26.510Z,2.60
2023-04-07T08:06:55.154Z,3.40
2023-04-07T08:09:23.008Z,3.00
2023-04-07T08:11:51.304Z,2.60
2023-04-07T08:14:19.271Z,2.80
2023-04-07T08:16:47.492Z,2.83
2023-04-07T08:19:15.676Z,2.67
2023-04-07T08:21:44.903Z,2.63
2023-04-07T08:24:12.783Z,3.05
2023-04-07T08:26:40.676Z,3.20
2023-04-07T08:29:08.603Z,2.75
2023-04-07T08:31:36.601Z,4.30
2023-04-07T08:34:04.598Z,3.05
2023-04-07T08:36:32.551Z,2.55
2023-04-07T08:39:02.319Z,3.10
2023-04-07T08:41:34.719Z,2.70
2023-04-07T08:44:02.936Z,3.10
2023-04-07T08:46:31.619Z,2.78
2023-04-07T08:49:00.390Z,2.70
2023-04-07T08:51:30.006Z,2.70
2023-04-07T08:54:06.352Z,2.53
2023-04-07T08:56:35.111Z,2.60
2023-04-07T08:59:03.510Z,2.58
2023-04-07T09:01:32.387Z,2.50
2023-04-07T09:04:01.546Z,2.78
2023-04-07T09:06:32.079Z,2.42
2023-04-07T09:09:00.026Z,2.20
2023-04-07T09:11:30.735Z,2.63
2023-04-07T09:13:59.044Z,2.50
2023-04-07T09:16:31.083Z,2.90
2023-04-07T09:18:59.370Z,2.58
2023-04-07T09:21:27.995Z,2.40
2023-04-07T09:23:55.915Z,2.35
2023-04-07T09:26:25.549Z,2.25
2023-04-07T09:28:56.353Z,2.50
2023-04-07T09:31:26.324Z,2.58
2023-04-07T09:33:55.563Z,2.30
2023-04-07T09:36:27.191Z,2.40
2023-04-07T09:38:55.099Z,2.35
2023-04-07T09:41:22.961Z,2.50
2023-04-07T09:43:59.454Z,2.72
2023-04-07T09:46:29.334Z,2.70
2023-04-07T09:49:05.868Z,2.60
2023-04-07T09:51:34.506Z,2.40
2023-04-07T09:54:02.381Z,2.40
2023-04-07T09:56:31.004Z,2.50
2023-04-07T09:59:01.907Z,2.20
2023-04-07T10:01:30.423Z,2.40
2023-04-07T10:03:59.134Z,3.78
2023-04-07T10:06:27.665Z,3.00
2023-04-07T10:08:55.638Z,2.78
2023-04-07T10:11:23.723Z,3.45
2023-04-07T10:13:52.539Z,2.42
2023-04-07T10:16:23.820Z,2.22
2023-04-07T10:18:52.180Z,2.58
2023-04-07T10:21:24.410Z,2.20
2023-04-07T10:24:01.055Z,2.63
2023-04-07T10:26:33.249Z,2.38
2023-04-07T10:29:05.561Z,2.65
2023-04-07T10:31:35.552Z,2.97
2023-04-07T10:34:03.728Z,2.90
2023-04-07T10:36:31.886Z,2.50
2023-04-07T10:39:22.178Z,3.15
2023-04-07T10:41:51.931Z,2.50
2023-04-07T10:44:49.936Z,2.60
2023-04-07T10:47:19.483Z,3.05
2023-04-07T10:50:20.652Z,4.25
2023-04-07T10:53:09.403Z,4.15
2023-04-07T10:55:39.305Z,3.33
2023-04-07T10:58:22.114Z,3.83
2023-04-07T11:01:21.108Z,2.53
2023-04-07T11:04:04.809Z,4.18
2023-04-07T11:06:33.021Z,3.65
2023-04-07T11:09:00.877Z,3.40
2023-04-07T11:11:40.114Z,3.40
2023-04-07T11:14:09.011Z,4.68
2023-04-07T11:16:45.544Z,2.80
2023-04-07T11:19:14.877Z,2.92
2023-04-07T11:21:42.782Z,3.20
2023-04-07T11:24:10.651Z,6.55
2023-04-07T11:26:40.367Z,3.00
2023-04-07T11:29:08.460Z,5.57
2023-04-07T11:31:37.226Z,4.45
2023-04-07T11:34:06.328Z,3.20
2023-04-07T11:36:40.309Z,4.50
2023-04-07T11:39:20.321Z,4.43
2023-04-07T11:41:49.409Z,5.47
2023-04-07T11:44:17.366Z,3.72
2023-04-07T11:46:54.780Z,5.97
2023-04-07T11:49:23.607Z,5.00
2023-04-07T11:52:01.031Z,5.32
2023-04-07T11:54:29.126Z,4.85
2023-04-07T11:56:57.003Z,4.22
2023-04-07T11:59:26.494Z,5.03
2023-04-07T12:01:57.522Z,4.47
2023-04-07T12:04:26.236Z,5.28
2023-04-07T12:06:55.550Z,4.57
2023-04-07T12:09:32.184Z,6.43
2023-04-07T12:12:00.725Z,6.25
2023-04-07T12:14:28.741Z,4.75
2023-04-07T12:16:58.397Z,4.88
2023-04-07T12:19:27.891Z,6.07
2023-04-07T12:22:00.663Z,4.72
2023-04-07T12:24:28.732Z,7.55
2023-04-07T12:26:56.622Z,4.43
2023-04-07T12:29:24.639Z,4.93
2023-04-07T12:31:52.682Z,5.15
2023-04-07T12:34:20.715Z,5.28
2023-04-07T12:36:48.611Z,5.78
2023-04-07T12:39:18.214Z,6.07
2023-04-07T12:41:47.648Z,4.28
2023-04-07T12:44:17.316Z,4.50
2023-04-07T12:46:45.131Z,4.47
2023-04-07T12:49:13.029Z,5.10
2023-04-07T12:51:41.338Z,6.53
2023-04-07T12:54:09.295Z,6.25
2023-04-07T12:56:38.736Z,5.63
2023-04-07T12:59:06.538Z,4.57
2023-04-07T13:01:35.604Z,3.63
2023-04-07T13:04:03.708Z,3.67
2023-04-07T13:06:32.245Z,4.07
2023-04-07T13:09:00.191Z,4.10
2023-04-07T13:11:28.353Z,4.43
2023-04-07T13:13:59.247Z,5.95
2023-04-07T13:16:28.582Z,4.72
2023-04-07T13:18:57.638Z,6.05
2023-04-07T13:21:45.372Z,4.82
2023-04-07T13:24:15.885Z,4.93
2023-04-07T13:26:43.763Z,5.53
2023-04-07T13:29:13.020Z,5.68
2023-04-07T13:31:41.650Z,6.63
2023-04-07T13:34:09.460Z,6.60
2023-04-07T13:36:37.517Z,5.85
2023-04-07T13:39:05.718Z,5.70
2023-04-07T13:41:33.525Z,3.83
2023-04-07T13:44:01.892Z,3.22
2023-04-07T13:46:31.243Z,4.28
2023-04-07T13:48:59.215Z,6.85
2023-04-07T13:51:28.119Z,4.80
2023-04-07T13:53:56.236Z,4.63
2023-04-07T13:56:24.756Z,3.67
2023-04-07T13:58:52.620Z,4.93
2023-04-07T14:01:20.564Z,4.22
2023-04-07T14:03:50.621Z,2.80
2023-04-07T14:06:18.752Z,4.50
2023-04-07T14:08:46.709Z,4.28
2023-04-07T14:11:18.021Z,5.28
2023-04-07T14:13:46.206Z,3.38
2023-04-07T14:16:14.284Z,6.75
2023-04-07T14:18:42.199Z,4.85
2023-04-07T14:21:11.574Z,11.10
2023-04-07T14:23:39.455Z,6.25
2023-04-07T14:26:11.370Z,4.78
2023-04-07T14:28:39.359Z,3.53
2023-04-07T14:31:07.373Z,3.75
2023-04-07T14:33:35.625Z,4.68
2023-04-07T14:36:03.484Z,3.80
2023-04-07T14:38:34.844Z,4.07
2023-04-07T14:43:35.880Z,4.63
2023-04-07T14:46:03.703Z,9.20
2023-04-07T14:48:32.696Z,5.25
2023-04-07T14:51:09.199Z,4.40
2023-04-07T14:53:39.286Z,6.85
2023-04-07T14:56:08.003Z,5.07
2023-04-07T14:58:38.920Z,6.15
2023-04-07T15:01:10.355Z,5.97
2023-04-07T15:03:39.227Z,5.70
2023-04-07T15:06:11.135Z,5.45
2023-04-07T15:08:40.773Z,5.00
2023-04-07T15:11:09.008Z,5.07
2023-04-07T15:13:37.633Z,4.82
2023-04-07T15:16:10.578Z,4.68
2023-04-07T15:18:40.958Z,4.93
2023-04-07T15:21:09.216Z,9.00
2023-04-07T15:23:38.805Z,5.05
2023-04-07T15:26:08.589Z,10.05
2023-04-07T15:28:36.433Z,7.72
2023-04-07T15:31:08.349Z,7.25
2023-04-07T15:33:39.602Z,4.57
2023-04-07T15:36:08.671Z,5.55
2023-04-07T15:38:38.808Z,5.18
2023-04-07T15:41:08.042Z,5.40
2023-04-07T15:43:36.821Z,4.35
2023-04-07T15:46:04.736Z,4.82
2023-04-07T15:48:32.473Z,5.30
2023-04-07T15:51:00.394Z,6.03
2023-04-07T15:53:28.365Z,6.82
2023-04-07T15:55:56.392Z,6.13
2023-04-07T15:58:25.649Z,9.65
2023-04-07T16:00:53.599Z,7.25
2023-04-07T16:03:21.518Z,8.25
2023-04-07T16:05:51.095Z,7.60
2023-04-07T16:08:18.901Z,8.43
2023-04-07T16:10:46.796Z,9.57
2023-04-07T16:13:15.494Z,8.73
2023-04-07T16:15:44.902Z,9.57
2023-04-07T16:18:13.043Z,10.32
2023-04-07T16:20:40.973Z,10.65
2023-04-07T16:23:08.937Z,9.45
2023-04-07T16:25:37.064Z,8.40
2023-04-07T16:28:06.326Z,10.05
2023-04-07T16:30:34.911Z,8.20
2023-04-07T16:33:04.180Z,10.13
2023-04-07T16:35:32.159Z,6.63
2023-04-07T16:38:03.983Z,7.95
2023-04-07T16:40:32.365Z,8.63
2023-04-07T16:43:00.516Z,8.07
2023-04-07T16:45:28.367Z,7.55
2023-04-07T16:47:56.267Z,8.07
2023-04-07T16:50:25.499Z,10.73
2023-04-07T16:52:54.841Z,7.30
2023-04-07T16:55:22.868Z,6.57
2023-04-07T16:57:51.071Z,7.70
2023-04-07T17:00:20.183Z,6.28
2023-04-07T17:02:48.220Z,9.55
2023-04-07T17:05:17.364Z,7.88
2023-04-07T17:07:46.500Z,10.05
2023-04-07T17:10:15.472Z,9.98
2023-04-07T17:12:43.354Z,7.95
2023-04-07T17:15:11.848Z,11.73
2023-04-07T17:17:39.758Z,13.02
2023-04-07T17:20:08.904Z,10.05
2023-04-07T17:22:37.493Z,9.40
2023-04-07T17:25:07.695Z,9.20
2023-04-07T17:27:36.042Z,8.55
2023-04-07T17:30:05.219Z,13.48
2023-04-07T17:32:33.228Z,11.95
2023-04-07T17:35:01.600Z,10.13
2023-04-07T17:37:29.416Z,12.43
2023-04-07T17:39:57.302Z,16.73
2023-04-07T17:42:26.615Z,29.40
2023-04-07T17:44:54.876Z,22.00
2023-04-07T17:47:22.858Z,16.65
2023-04-07T17:49:50.764Z,15.43
2023-04-07T17:52:18.998Z,25.88
2023-04-07T17:54:47.212Z,20.30
2023-04-07T17:57:15.855Z,17.05
2023-04-07T17:59:45.123Z,16.23
2023-04-07T18:02:12.996Z,13.73
2023-04-07T18:04:41.364Z,15.23
2023-04-07T18:07:09.565Z,14.25
2023-04-07T18:09:37.320Z,13.45
2023-04-07T18:12:05.512Z,14.75
2023-04-07T18:14:33.309Z,16.65
2023-04-07T18:17:02.531Z,20.63
2023-04-07T18:19:31.005Z,15.23
2023-04-07T18:22:00.038Z,16.33
2023-04-07T18:24:28.206Z,14.35
2023-04-07T18:26:56.863Z,12.07
2023-04-07T18:29:24.791Z,11.00
2023-04-07T18:31:53.052Z,10.80
2023-04-07T18:34:22.271Z,10.82
2023-04-07T18:36:50.635Z,10.85
2023-04-07T18:39:19.112Z,19.88
2023-04-07T18:41:48.426Z,15.13
2023-04-07T18:44:16.305Z,14.70
2023-04-07T18:46:44.229Z,11.43
2023-04-07T18:49:12.081Z,10.35
2023-04-07T18:51:41.729Z,12.60
2023-04-07T18:54:09.548Z,11.55
2023-04-07T18:56:37.493Z,11.55
2023-04-07T18:59:07.251Z,8.35
2023-04-07T19:01:35.649Z,7.85
2023-04-07T19:04:03.691Z,8.85
2023-04-07T19:06:32.037Z,10.90
2023-04-07T19:09:01.266Z,12.93
2023-04-07T19:11:29.573Z,9.98
2023-04-07T19:13:57.366Z,8.82
2023-04-07T19:16:25.799Z,9.00
2023-04-07T19:18:54.000Z,9.85
2023-04-07T19:21:21.815Z,8.20
2023-04-07T19:23:49.962Z,10.13
2023-04-07T19:26:19.381Z,7.60
2023-04-07T19:28:48.369Z,11.80
2023-04-07T19:31:16.451Z,7.30
2023-04-07T19:33:44.993Z,7.85
2023-04-07T19:36:13.000Z,9.15
2023-04-07T19:38:43.069Z,7.25
2023-04-07T19:41:11.577Z,8.20
2023-04-07T19:43:40.698Z,15.38
2023-04-07T19:46:09.203Z,8.27
2023-04-07T19:48:37.190Z,8.90
2023-04-07T19:51:07.113Z,7.20
2023-04-07T19:53:35.449Z,7.70
2023-04-07T19:56:04.487Z,7.55
2023-04-07T19:58:34.466Z,8.85
2023-04-07T20:01:04.560Z,8.68
2023-04-07T20:03:32.575Z,6.90
2023-04-07T20:06:00.800Z,6.80
2023-04-07T20:08:28.580Z,8.73
2023-04-07T20:10:56.392Z,7.90
2023-04-07T20:13:24.258Z,6.65
2023-04-07T20:15:52.068Z,7.03
2023-04-07T20:18:21.453Z,7.57
2023-04-07T20:20:50.161Z,7.18
2023-04-07T20:23:22.150Z,7.60
2023-04-07T20:25:50.091Z,7.43
2023-04-07T20:28:18.025Z,10.32
2023-04-07T20:30:45.903Z,9.60
2023-04-07T20:33:14.092Z,10.45
2023-04-07T20:35:43.351Z,6.95
2023-04-07T20:38:11.142Z,8.82
2023-04-07T20:40:39.128Z,9.75
2023-04-07T20:43:07.550Z,8.05
2023-04-07T20:45:35.354Z,8.07
2023-04-07T20:48:03.355Z,8.82
2023-04-07T20:50:31.272Z,7.70
2023-04-07T20:53:00.732Z,8.10
2023-04-07T20:55:28.824Z,5.32
2023-04-07T20:57:57.226Z,9.05
2023-04-07T21:00:26.064Z,7.70
2023-04-07T21:02:54.101Z,11.05
2023-04-07T21:05:22.480Z,8.35
2023-04-07T21:07:50.349Z,7.07
2023-04-07T21:10:19.636Z,6.55
2023-04-07T21:12:47.646Z,10.88
2023-04-07T21:15:15.731Z,6.90
2023-04-07T21:17:43.799Z,6.88
2023-04-07T21:20:12.925Z,5.97
2023-04-07T21:22:40.914Z,6.15
2023-04-07T21:25:09.481Z,4.93
2023-04-07T21:27:38.714Z,5.80
2023-04-07T21:30:07.251Z,7.03
2023-04-07T21:32:35.210Z,6.93
2023-04-07T21:35:03.765Z,8.07
2023-04-07T21:37:31.578Z,6.15
2023-04-07T21:40:01.426Z,5.57
2023-04-07T21:42:30.960Z,4.82
2023-04-07T21:45:00.843Z,5.82
2023-04-07T21:47:28.940Z,6.43
2023-04-07T21:49:57.944Z,4.80
2023-04-07T21:52:25.688Z,5.82
2023-04-07T21:54:53.559Z,5.00
2023-04-07T21:57:21.566Z,7.28
2023-04-07T21:59:49.391Z,6.63
2023-04-07T22:02:18.641Z,7.72
2023-04-07T22:04:46.838Z,6.50
2023-04-07T22:07:14.987Z,7.07
2023-04-07T22:09:43.174Z,5.95
2023-04-07T22:12:11.156Z,6.57
2023-04-07T22:14:39.199Z,5.90
2023-04-07T22:17:07.799Z,6.25
2023-04-07T22:19:37.395Z,5.43
2023-04-07T22:22:07.721Z,6.13
2023-04-07T22:24:35.807Z,6.35
2023-04-07T22:27:03.795Z,6.60
2023-04-07T22:29:31.666Z,8.13
2023-04-07T22:31:59.704Z,6.13
2023-04-07T22:34:27.749Z,6.28
2023-04-07T22:36:57.199Z,7.75
2023-04-07T22:39:25.049Z,6.57
2023-04-07T22:41:53.721Z,5.10
2023-04-07T22:44:21.619Z,5.20
2023-04-07T22:46:49.606Z,5.82
2023-04-07T22:49:17.566Z,5.88
2023-04-07T22:51:48.686Z,7.03
2023-04-07T22:54:18.796Z,9.85
2023-04-07T22:56:46.659Z,8.55
2023-04-07T22:59:14.575Z,5.10
2023-04-07T23:01:42.430Z,7.10
2023-04-07T23:04:10.369Z,8.90
2023-04-07T23:06:40.564Z,7.63
2023-04-07T23:09:08.475Z,6.85
2023-04-07T23:11:37.666Z,7.30
2023-04-07T23:14:06.292Z,6.13
2023-04-07T23:16:34.958Z,5.85
2023-04-07T23:19:03.193Z,5.57
2023-04-07T23:21:32.067Z,6.28
2023-04-07T23:24:00.815Z,5.35
2023-04-07T23:26:28.613Z,5.82
2023-04-07T23:28:57.775Z,5.97
2023-04-07T23:31:25.684Z,6.85
2023-04-07T23:33:53.585Z,5.88
2023-04-07T23:36:21.441Z,6.15
2023-04-07T23:38:49.514Z,5.45
2023-04-07T23:41:17.706Z,6.07
2023-04-07T23:43:45.635Z,5.68
2023-04-07T23:46:14.891Z,6.20
2023-04-07T23:48:43.281Z,5.53
2023-04-07T23:51:14.667Z,6.20
2023-04-07T23:53:42.508Z,5.32
2023-04-07T23:56:10.628Z,6.32
2023-04-07T23:58:38.631Z,7.28
